createdAt,value
2018-02-16T00:00:49.002Z,32.43
2018-02-16T00:03:17.280Z,33.77
2018-02-16T00:05:45.537Z,32.63
2018-02-16T00:08:13.011Z,33.50
2018-02-16T00:10:41.267Z,33.80
2018-02-16T00:13:08.782Z,32.87
2018-02-16T00:15:36.253Z,34.97
2018-02-16T00:18:03.799Z,35.07
2018-02-16T00:20:31.279Z,34.63
2018-02-16T00:22:58.749Z,34.57
2018-02-16T00:25:26.259Z,34.23
2018-02-16T00:27:53.803Z,34.10
2018-02-16T00:30:22.083Z,33.57
2018-02-16T00:32:50.343Z,33.90
2018-02-16T00:35:17.831Z,31.60
2018-02-16T00:37:45.622Z,32.20
2018-02-16T00:40:13.110Z,30.00
2018-02-16T00:42:40.590Z,34.10
2018-02-16T00:45:08.878Z,32.57
2018-02-16T00:47:37.153Z,32.60
2018-02-16T00:50:05.402Z,34.27
2018-02-16T00:52:32.886Z,33.93
2018-02-16T00:55:01.150Z,34.60
2018-02-16T00:57:28.666Z,31.00
2018-02-16T00:59:56.142Z,31.07
2018-02-16T01:02:23.634Z,33.30
2018-02-16T01:04:51.887Z,32.43
2018-02-16T01:07:19.361Z,31.90
2018-02-16T01:09:47.622Z,33.57
2018-02-16T01:12:15.104Z,34.17
2018-02-16T01:14:43.343Z,32.40
2018-02-16T01:17:10.838Z,30.50
2018-02-16T01:19:39.085Z,32.63
2018-02-16T01:22:06.569Z,32.83
2018-02-16T01:24:34.827Z,31.80
2018-02-16T01:27:02.415Z,30.13
2018-02-16T01:29:30.690Z,30.00
2018-02-16T01:31:58.990Z,29.30
2018-02-16T01:34:27.215Z,28.97
2018-02-16T01:36:54.695Z,31.47
2018-02-16T01:39:22.947Z,30.07
2018-02-16T01:41:50.430Z,29.43
2018-02-16T01:44:18.706Z,30.37
2018-02-16T01:46:46.966Z,30.63
2018-02-16T01:49:14.538Z,30.57
2018-02-16T01:51:42.018Z,30.60
2018-02-16T01:54:09.550Z,28.97
2018-02-16T01:56:37.022Z,29.73
2018-02-16T01:59:04.504Z,29.83
2018-02-16T02:01:31.991Z,33.67
2018-02-16T02:03:59.470Z,30.03
2018-02-16T02:06:26.946Z,29.70
2018-02-16T02:08:55.203Z,29.20
2018-02-16T02:11:22.685Z,30.70
2018-02-16T02:13:51.048Z,31.03
2018-02-16T02:16:18.613Z,30.50
2018-02-16T02:18:46.166Z,28.63
2018-02-16T02:21:13.635Z,28.90
2018-02-16T02:23:41.910Z,28.80
2018-02-16T02:26:09.415Z,30.20
2018-02-16T02:28:36.898Z,28.07
2018-02-16T02:31:04.386Z,28.37
2018-02-16T02:33:32.639Z,26.77
2018-02-16T02:36:00.221Z,28.53
2018-02-16T02:38:28.501Z,28.67
2018-02-16T02:40:56.751Z,27.50
2018-02-16T02:43:24.229Z,25.13
2018-02-16T02:45:52.521Z,27.77
2018-02-16T02:48:20.079Z,25.10
2018-02-16T02:50:48.324Z,25.67
2018-02-16T02:53:15.922Z,25.40
2018-02-16T02:55:44.171Z,25.10
2018-02-16T02:58:11.656Z,26.40
2018-02-16T03:00:39.906Z,24.23
2018-02-16T03:03:07.390Z,25.40
2018-02-16T03:05:36.674Z,25.13
2018-02-16T03:08:04.218Z,24.77
2018-02-16T03:10:31.694Z,25.27
2018-02-16T03:25:58.303Z,27.67
2018-02-16T03:28:25.788Z,27.10
2018-02-16T03:30:54.058Z,24.20
2018-02-16T03:33:22.313Z,23.50
2018-02-16T03:35:49.797Z,26.87
2018-02-16T03:38:18.041Z,25.53
2018-02-16T03:40:45.631Z,26.37
2018-02-16T03:43:13.869Z,26.33
2018-02-16T03:45:41.369Z,25.60
2018-02-16T03:48:09.643Z,26.93
2018-02-16T03:50:37.911Z,25.27
2018-02-16T03:53:05.394Z,25.20
2018-02-16T03:55:33.663Z,25.70
2018-02-16T03:58:01.934Z,24.93
2018-02-16T04:00:30.174Z,26.90
2018-02-16T04:02:57.662Z,26.77
2018-02-16T04:05:25.916Z,28.70
2018-02-16T04:07:53.398Z,27.70
2018-02-16T04:10:21.649Z,28.10
2018-02-16T04:12:49.129Z,25.90
2018-02-16T04:15:17.376Z,27.17
2018-02-16T04:17:44.861Z,26.93
2018-02-16T04:20:12.338Z,27.57
2018-02-16T04:22:40.578Z,28.00
2018-02-16T04:25:08.070Z,28.40
2018-02-16T04:27:36.333Z,27.77
2018-02-16T04:30:04.577Z,29.90
2018-02-16T04:32:32.071Z,30.20
2018-02-16T04:35:00.311Z,30.13
2018-02-16T04:37:27.807Z,30.33
2018-02-16T04:39:56.071Z,30.33
2018-02-16T04:42:23.631Z,26.10
2018-02-16T04:44:51.105Z,29.83
2018-02-16T04:47:19.378Z,28.53
2018-02-16T04:49:47.622Z,28.43
2018-02-16T04:52:15.103Z,30.07
2018-02-16T04:54:42.588Z,29.37
2018-02-16T04:57:10.068Z,28.27
2018-02-16T04:59:37.583Z,30.23
2018-02-16T05:02:05.834Z,31.27
2018-02-16T05:04:33.429Z,29.57
2018-02-16T05:07:01.698Z,31.17
2018-02-16T05:09:29.954Z,30.90
2018-02-16T05:11:58.250Z,31.37
2018-02-16T05:14:26.530Z,26.60
2018-02-16T05:16:54.906Z,28.13
2018-02-16T05:19:23.186Z,28.37
2018-02-16T05:21:51.438Z,28.77
2018-02-16T05:24:18.929Z,28.10
2018-02-16T05:26:46.418Z,28.50
2018-02-16T05:29:13.895Z,30.50
2018-02-16T05:31:41.399Z,29.70
2018-02-16T05:34:09.651Z,33.03
2018-02-16T05:36:37.951Z,31.87
2018-02-16T05:39:06.223Z,33.67
2018-02-16T05:41:34.471Z,30.37
2018-02-16T05:44:01.965Z,29.40
2018-02-16T05:46:30.218Z,31.63
2018-02-16T05:48:57.711Z,34.13
2018-02-16T05:51:25.260Z,31.70
2018-02-16T05:53:53.522Z,32.87
2018-02-16T05:56:20.998Z,33.57
2018-02-16T05:58:49.278Z,32.07
2018-02-16T06:01:17.532Z,33.50
2018-02-16T06:03:45.106Z,32.83
2018-02-16T06:06:12.602Z,33.57
2018-02-16T06:08:40.086Z,30.97
2018-02-16T06:11:07.600Z,30.00
2018-02-16T06:13:35.086Z,31.23
2018-02-16T06:16:02.653Z,30.73
2018-02-16T06:18:30.094Z,30.80
2018-02-16T06:20:57.573Z,32.50
2018-02-16T06:23:25.064Z,29.00
2018-02-16T06:25:53.311Z,29.70
2018-02-16T06:28:20.781Z,30.97
2018-02-16T06:30:49.043Z,27.63
2018-02-16T06:33:16.523Z,29.60
2018-02-16T06:35:44.399Z,29.67
2018-02-16T06:38:12.679Z,31.43
2018-02-16T06:40:40.924Z,30.47
2018-02-16T06:43:08.401Z,29.60
2018-02-16T06:45:35.971Z,29.33
2018-02-16T06:48:04.226Z,30.97
2018-02-16T06:50:31.724Z,32.87
2018-02-16T06:52:59.299Z,30.50
2018-02-16T06:55:26.787Z,31.63
2018-02-16T06:57:54.266Z,30.67
2018-02-16T07:00:21.863Z,31.30
2018-02-16T07:02:49.351Z,33.97
2018-02-16T07:05:16.858Z,30.10
2018-02-16T07:07:44.666Z,29.53
2018-02-16T07:10:12.138Z,29.80
2018-02-16T07:12:39.618Z,32.47
2018-02-16T07:15:07.212Z,28.90
2018-02-16T07:17:35.461Z,29.17
2018-02-16T07:20:02.930Z,28.57
2018-02-16T07:22:30.501Z,25.77
2018-02-16T07:24:58.744Z,24.70
2018-02-16T07:27:26.216Z,25.00
2018-02-16T07:29:53.787Z,23.50
2018-02-16T07:32:21.358Z,24.83
2018-02-16T07:34:49.603Z,22.80
2018-02-16T07:37:17.093Z,24.73
2018-02-16T07:39:45.329Z,23.27
2018-02-16T07:42:12.827Z,23.60
2018-02-16T07:44:41.079Z,23.37
2018-02-16T07:47:08.558Z,24.10
2018-02-16T07:49:36.802Z,25.03
2018-02-16T07:52:04.294Z,22.20
2018-02-16T07:54:32.535Z,25.27
2018-02-16T07:57:00.024Z,26.90
2018-02-16T07:59:28.279Z,26.70
2018-02-16T08:01:55.766Z,26.60
2018-02-16T08:04:24.011Z,23.13
2018-02-16T08:06:51.599Z,21.97
2018-02-16T08:09:19.866Z,24.53
2018-02-16T08:11:47.408Z,22.03
2018-02-16T08:14:14.873Z,21.87
2018-02-16T08:16:42.346Z,22.03
2018-02-16T08:19:10.594Z,22.27
2018-02-16T08:21:38.090Z,21.83
2018-02-16T08:24:06.365Z,20.30
2018-02-16T08:26:34.635Z,22.43
2018-02-16T08:29:02.894Z,20.40
2018-02-16T08:31:30.506Z,22.83
2018-02-16T08:33:57.983Z,19.33
2018-02-16T08:36:25.480Z,19.30
2018-02-16T08:38:53.739Z,21.43
2018-02-16T08:41:21.222Z,22.73
2018-02-16T08:43:49.479Z,21.90
2018-02-16T08:46:16.969Z,23.90
2018-02-16T08:48:45.222Z,32.93
2018-02-16T08:51:14.222Z,27.20
2018-02-16T08:53:41.696Z,28.70
2018-02-16T08:56:09.981Z,39.33
2018-02-16T08:58:38.234Z,85.83
2018-02-16T09:01:06.407Z,60.93
2018-02-16T09:03:34.651Z,41.10
2018-02-16T09:06:02.138Z,39.60
2018-02-16T09:08:29.710Z,38.47
2018-02-16T09:10:57.953Z,27.70
2018-02-16T09:13:25.450Z,24.60
2018-02-16T09:15:53.696Z,25.07
2018-02-16T09:18:21.290Z,22.93
2018-02-16T09:20:49.538Z,24.23
2018-02-16T09:23:18.550Z,23.47
2018-02-16T09:25:46.798Z,24.73
2018-02-16T09:28:14.304Z,26.73
2018-02-16T09:30:42.542Z,25.40
2018-02-16T09:33:10.114Z,24.87
2018-02-16T09:35:39.645Z,27.90
2018-02-16T09:38:07.126Z,26.17
2018-02-16T09:40:34.610Z,27.50
2018-02-16T09:43:02.103Z,29.10
2018-02-16T09:45:30.481Z,30.80
2018-02-16T09:47:58.767Z,32.77
2018-02-16T09:50:27.143Z,29.70
2018-02-16T09:52:54.697Z,31.40
2018-02-16T09:55:22.973Z,29.37
2018-02-16T09:57:51.231Z,30.20
2018-02-16T10:00:19.055Z,29.10
2018-02-16T10:02:46.525Z,30.73
2018-02-16T10:05:14.017Z,28.77
2018-02-16T10:07:41.494Z,30.80
2018-02-16T10:10:09.746Z,30.80
2018-02-16T10:12:37.230Z,29.20
2018-02-16T10:15:05.474Z,31.50
2018-02-16T10:17:32.962Z,29.93
2018-02-16T10:20:01.254Z,31.07
2018-02-16T10:22:28.818Z,31.17
2018-02-16T10:24:56.298Z,31.17
2018-02-16T10:27:23.814Z,30.70
2018-02-16T10:29:52.072Z,31.27
2018-02-16T10:32:19.749Z,30.93
2018-02-16T10:34:47.998Z,29.23
2018-02-16T10:37:15.485Z,29.70
2018-02-16T10:39:43.762Z,29.40
2018-02-16T10:42:12.022Z,30.80
2018-02-16T10:44:40.316Z,32.50
2018-02-16T10:47:08.561Z,28.03
2018-02-16T10:49:36.059Z,31.03
2018-02-16T10:52:04.951Z,32.03
2018-02-16T10:54:32.451Z,29.10
2018-02-16T10:56:59.983Z,30.30
2018-02-16T10:59:27.466Z,29.07
2018-02-16T11:15:15.331Z,31.13
2018-02-16T11:17:43.584Z,30.23
2018-02-16T11:20:11.067Z,31.87
2018-02-16T11:22:38.557Z,29.87
2018-02-16T11:25:06.032Z,29.40
2018-02-16T11:27:33.527Z,29.70
2018-02-16T11:30:01.021Z,32.30
2018-02-16T11:32:29.266Z,29.37
2018-02-16T11:34:56.742Z,31.10
2018-02-16T11:37:24.990Z,30.83
2018-02-16T11:39:52.476Z,31.57
2018-02-16T11:42:20.729Z,31.33
2018-02-16T11:44:48.223Z,29.13
2018-02-16T11:47:15.771Z,32.97
2018-02-16T11:49:44.015Z,31.33
2018-02-16T11:52:11.509Z,32.17
2018-02-16T11:54:39.754Z,32.10
2018-02-16T11:57:07.237Z,31.30
2018-02-16T11:59:35.503Z,33.50
2018-02-16T12:02:04.491Z,34.13
2018-02-16T12:04:31.965Z,32.90
2018-02-16T12:07:00.236Z,34.90
2018-02-16T12:09:27.848Z,35.37
2018-02-16T12:11:55.330Z,34.90
2018-02-16T12:14:22.823Z,32.23
2018-02-16T12:16:51.073Z,31.77
2018-02-16T12:19:18.548Z,31.30
2018-02-16T12:21:46.044Z,32.00
2018-02-16T12:24:13.526Z,30.40
2018-02-16T12:26:41.010Z,31.30
2018-02-16T12:29:08.518Z,31.60
2018-02-16T12:31:35.994Z,33.20
2018-02-16T12:34:03.472Z,31.97
2018-02-16T12:36:30.965Z,32.43
2018-02-16T12:38:59.225Z,34.07
2018-02-16T12:41:27.154Z,31.63
2018-02-16T12:43:54.683Z,33.83
2018-02-16T12:46:22.933Z,30.40
2018-02-16T12:48:50.414Z,30.73
2018-02-16T12:51:18.716Z,31.77
2018-02-16T12:53:46.935Z,32.20
2018-02-16T12:56:14.422Z,30.67
2018-02-16T12:58:42.682Z,26.87
2018-02-16T13:01:10.189Z,28.40
2018-02-16T13:03:37.683Z,25.90
2018-02-16T13:06:05.171Z,29.60
2018-02-16T13:08:33.451Z,25.97
2018-02-16T13:11:01.709Z,24.20
2018-02-16T13:13:29.213Z,24.37
2018-02-16T13:15:56.690Z,34.33
2018-02-16T13:18:24.170Z,25.70
2018-02-16T13:20:51.682Z,24.17
2018-02-16T13:23:19.166Z,23.63
2018-02-16T13:25:46.686Z,23.37
2018-02-16T13:28:14.228Z,23.47
2018-02-16T13:30:42.474Z,21.37
2018-02-16T13:33:09.968Z,22.50
2018-02-16T13:35:38.233Z,23.57
2018-02-16T13:38:06.523Z,21.83
2018-02-16T13:40:34.074Z,21.70
2018-02-16T13:43:02.332Z,22.17
2018-02-16T13:45:29.810Z,21.00
2018-02-16T13:47:58.121Z,20.20
2018-02-16T13:50:25.619Z,19.70
2018-02-16T13:52:54.161Z,21.90
2018-02-16T13:55:21.713Z,21.30
2018-02-16T13:57:49.547Z,20.90
2018-02-16T14:00:17.919Z,22.60
2018-02-16T14:02:46.248Z,18.30
2018-02-16T14:05:13.847Z,18.90
2018-02-16T14:07:41.355Z,19.47
2018-02-16T14:10:08.873Z,17.93
2018-02-16T14:12:36.607Z,18.07
2018-02-16T14:15:04.165Z,18.80
2018-02-16T14:17:31.783Z,17.77
2018-02-16T14:20:00.194Z,18.27
2018-02-16T14:22:27.822Z,18.30
2018-02-16T14:24:55.402Z,17.63
2018-02-16T14:27:22.968Z,17.13
2018-02-16T14:29:50.568Z,17.50
2018-02-16T14:32:19.198Z,19.93
2018-02-16T14:34:47.116Z,16.70
2018-02-16T14:37:14.951Z,17.23
2018-02-16T14:39:43.197Z,39.37
2018-02-16T14:42:10.876Z,25.37
2018-02-16T14:44:38.395Z,40.73
2018-02-16T14:47:06.018Z,29.00
2018-02-16T14:49:33.817Z,21.90
2018-02-16T14:52:02.085Z,18.80
2018-02-16T14:54:29.571Z,18.93
2018-02-16T14:56:57.067Z,17.83
2018-02-16T14:59:24.557Z,15.80
2018-02-16T15:01:52.165Z,16.20
2018-02-16T15:04:20.427Z,12.50
2018-02-16T15:06:48.761Z,13.60
2018-02-16T15:09:16.307Z,13.50
2018-02-16T15:11:43.833Z,11.70
2018-02-16T15:14:12.084Z,13.57
2018-02-16T15:16:39.675Z,15.33
2018-02-16T15:19:07.938Z,15.23
2018-02-16T15:21:36.250Z,13.47
2018-02-16T15:24:03.726Z,13.00
2018-02-16T15:26:31.219Z,13.10
2018-02-16T15:28:58.694Z,13.40
2018-02-16T15:31:26.962Z,12.77
2018-02-16T15:33:54.460Z,12.70
2018-02-16T15:36:21.962Z,13.10
2018-02-16T15:38:49.444Z,14.03
2018-02-16T15:41:17.696Z,12.67
2018-02-16T15:43:45.178Z,11.90
2018-02-16T15:46:13.429Z,13.10
2018-02-16T15:48:41.160Z,13.20
2018-02-16T15:51:08.641Z,11.80
2018-02-16T15:53:36.126Z,11.73
2018-02-16T15:56:03.615Z,12.40
2018-02-16T15:58:31.205Z,36.40
2018-02-16T16:00:58.721Z,17.37
2018-02-16T16:03:26.987Z,15.87
2018-02-16T16:05:55.263Z,15.73
2018-02-16T16:08:23.515Z,15.70
2018-02-16T16:10:51.098Z,14.17
2018-02-16T16:13:18.675Z,14.60
2018-02-16T16:15:46.915Z,15.27
2018-02-16T16:18:14.411Z,19.13
2018-02-16T16:20:41.885Z,17.40
2018-02-16T16:23:09.376Z,20.57
2018-02-16T16:25:36.983Z,20.70
2018-02-16T16:28:05.254Z,21.30
2018-02-16T16:30:33.571Z,24.00
2018-02-16T16:33:01.063Z,19.40
2018-02-16T16:35:28.606Z,21.40
2018-02-16T16:37:56.086Z,21.93
2018-02-16T16:40:23.574Z,23.90
2018-02-16T16:42:51.814Z,24.47
2018-02-16T16:45:19.330Z,22.70
2018-02-16T16:47:46.860Z,29.87
2018-02-16T16:50:15.109Z,23.47
2018-02-16T16:52:42.694Z,28.20
2018-02-16T16:55:10.949Z,25.97
2018-02-16T16:57:38.425Z,25.33
2018-02-16T17:00:06.678Z,28.47
2018-02-16T17:02:34.209Z,28.07
2018-02-16T17:05:01.691Z,29.20
2018-02-16T17:07:29.187Z,30.23
2018-02-16T17:09:57.450Z,30.27
2018-02-16T17:12:25.755Z,30.37
2018-02-16T17:14:53.235Z,35.50
2018-02-16T17:17:20.731Z,31.50
2018-02-16T17:19:49.734Z,33.60
2018-02-16T17:22:17.347Z,34.70
2018-02-16T17:24:44.862Z,40.23
2018-02-16T17:27:13.138Z,44.90
2018-02-16T17:29:42.021Z,139.90
2018-02-16T17:32:10.470Z,60.17
2018-02-16T17:34:38.108Z,50.73
2018-02-16T17:37:06.344Z,50.50
2018-02-16T17:39:34.044Z,29.50
2018-02-16T17:42:01.550Z,30.87
2018-02-16T17:44:29.039Z,25.33
2018-02-16T17:46:57.296Z,32.30
2018-02-16T17:49:24.870Z,33.87
2018-02-16T17:51:53.116Z,34.83
2018-02-16T17:54:21.377Z,38.23
2018-02-16T17:56:48.875Z,38.90
2018-02-16T17:59:17.125Z,39.53
2018-02-16T18:01:44.639Z,41.17
2018-02-16T18:04:12.175Z,32.40
2018-02-16T18:06:40.451Z,30.87
2018-02-16T18:09:08.723Z,32.67
2018-02-16T18:11:36.995Z,31.57
2018-02-16T18:14:05.267Z,31.60
2018-02-16T18:16:32.838Z,32.97
2018-02-16T18:19:01.115Z,30.90
2018-02-16T18:21:29.368Z,33.90
2018-02-16T18:23:57.075Z,35.83
2018-02-16T18:26:24.554Z,38.73
2018-02-16T18:28:52.050Z,37.63
2018-02-16T18:31:19.545Z,36.00
2018-02-16T18:33:47.042Z,39.97
2018-02-16T18:36:14.546Z,40.30
2018-02-16T18:38:42.820Z,39.10
2018-02-16T18:41:11.566Z,38.20
2018-02-16T18:43:39.174Z,37.17
2018-02-16T18:46:07.437Z,40.63
2018-02-16T18:48:34.924Z,41.57
2018-02-16T18:51:02.402Z,47.27
2018-02-16T18:53:29.899Z,50.10
2018-02-16T18:55:59.088Z,78.70
2018-02-16T18:58:26.684Z,49.93
2018-02-16T19:00:54.942Z,47.47
2018-02-16T19:03:23.245Z,46.20
2018-02-16T19:05:50.799Z,41.33
2018-02-16T19:08:19.173Z,41.83
2018-02-16T19:10:47.435Z,40.40
2018-02-16T19:13:14.937Z,46.57
2018-02-16T19:15:42.475Z,46.53
2018-02-16T19:18:10.743Z,55.13
2018-02-16T19:20:38.997Z,54.77
2018-02-16T19:23:06.497Z,55.70
2018-02-16T19:25:35.495Z,45.80
2018-02-16T19:28:03.037Z,59.93
2018-02-16T19:30:31.330Z,51.17
2018-02-16T19:32:58.862Z,42.10
2018-02-16T19:35:27.146Z,53.40
2018-02-16T19:37:55.414Z,47.67
2018-02-16T19:40:23.702Z,54.93
2018-02-16T19:42:51.954Z,43.70
2018-02-16T19:45:19.464Z,47.60
2018-02-16T19:47:46.958Z,34.13
2018-02-16T19:50:14.445Z,42.17
2018-02-16T19:52:42.776Z,29.90
2018-02-16T19:55:10.278Z,31.77
2018-02-16T19:57:39.297Z,31.47
2018-02-16T20:00:06.796Z,32.07
2018-02-16T20:02:34.301Z,38.97
2018-02-16T20:05:02.574Z,33.37
2018-02-16T20:07:30.855Z,31.60
2018-02-16T20:09:59.103Z,34.60
2018-02-16T20:12:26.593Z,35.30
2018-02-16T20:14:54.867Z,32.90
2018-02-16T20:17:23.143Z,39.27
2018-02-16T20:19:51.389Z,44.37
2018-02-16T20:22:18.971Z,34.57
2018-02-16T20:24:47.233Z,36.00
2018-02-16T20:27:15.507Z,33.27
2018-02-16T20:29:43.765Z,35.57
2018-02-16T20:32:11.250Z,28.50
2018-02-16T20:34:39.528Z,32.07
2018-02-16T20:37:07.798Z,28.40
2018-02-16T20:39:35.288Z,31.83
2018-02-16T20:42:02.770Z,34.60
2018-02-16T20:44:30.286Z,31.47
2018-02-16T20:46:58.562Z,31.77
2018-02-16T20:49:26.822Z,32.30
2018-02-16T20:51:55.114Z,31.73
2018-02-16T20:54:22.608Z,33.03
2018-02-16T20:56:51.078Z,36.80
2018-02-16T20:59:19.331Z,30.93
2018-02-16T21:01:47.585Z,33.00
2018-02-16T21:04:15.074Z,31.17
2018-02-16T21:06:43.333Z,38.37
2018-02-16T21:09:10.823Z,29.27
2018-02-16T21:11:38.325Z,33.13
2018-02-16T21:14:05.820Z,29.87
2018-02-16T21:16:34.075Z,31.87
2018-02-16T21:19:02.435Z,40.30
2018-02-16T21:21:29.943Z,36.43
2018-02-16T21:23:58.198Z,42.80
2018-02-16T21:26:25.688Z,45.43
2018-02-16T21:28:53.186Z,44.47
2018-02-16T21:31:20.683Z,42.37
2018-02-16T21:33:48.947Z,41.07
2018-02-16T21:36:16.451Z,45.93
2018-02-16T21:38:43.948Z,33.70
2018-02-16T21:41:11.443Z,45.70
2018-02-16T21:43:39.752Z,40.60
2018-02-16T21:46:07.240Z,36.80
2018-02-16T21:48:34.752Z,37.30
2018-02-16T21:51:02.397Z,32.40
2018-02-16T21:53:30.654Z,35.90
2018-02-16T21:55:58.150Z,36.53
2018-02-16T21:58:25.919Z,36.20
2018-02-16T22:00:53.459Z,37.10
2018-02-16T22:03:21.726Z,35.77
2018-02-16T22:05:49.993Z,37.27
2018-02-16T22:08:18.248Z,36.30
2018-02-16T22:10:45.729Z,36.47
2018-02-16T22:13:13.229Z,33.50
2018-02-16T22:15:40.705Z,49.70
2018-02-16T22:18:08.235Z,56.97
2018-02-16T22:20:35.721Z,47.83
2018-02-16T22:23:03.199Z,32.40
2018-02-16T22:25:30.792Z,30.87
2018-02-16T22:27:59.060Z,31.83
2018-02-16T22:30:26.622Z,27.67
2018-02-16T22:32:54.907Z,23.03
2018-02-16T22:35:23.163Z,25.97
2018-02-16T22:37:52.148Z,26.70
2018-02-16T22:40:19.636Z,30.40
2018-02-16T22:42:47.893Z,25.60
2018-02-16T22:45:16.882Z,28.37
2018-02-16T22:47:44.374Z,28.37
2018-02-16T22:50:11.875Z,26.40
2018-02-16T22:52:39.362Z,29.57
2018-02-16T22:55:06.854Z,27.17
2018-02-16T22:57:35.142Z,24.03
2018-02-16T23:00:02.739Z,25.77
2018-02-16T23:02:30.222Z,26.20
2018-02-16T23:04:58.478Z,26.73
2018-02-16T23:07:25.960Z,26.27
2018-02-16T23:09:54.218Z,24.87
2018-02-16T23:12:21.710Z,29.70
2018-02-16T23:14:49.972Z,27.20
2018-02-16T23:17:18.231Z,27.77
2018-02-16T23:19:45.717Z,25.27
2018-02-16T23:22:13.966Z,21.07
2018-02-16T23:24:41.553Z,28.57
2018-02-16T23:27:09.809Z,28.90
2018-02-16T23:29:37.299Z,25.60
2018-02-16T23:32:04.846Z,23.40
2018-02-16T23:34:33.103Z,23.83
2018-02-16T23:37:00.585Z,23.10
2018-02-16T23:39:28.832Z,24.77
2018-02-16T23:41:56.389Z,26.20
2018-02-16T23:44:23.775Z,24.53
2018-02-16T23:46:52.782Z,27.03
2018-02-16T23:49:20.274Z,30.10
2018-02-16T23:51:48.524Z,28.60
2018-02-16T23:54:16.770Z,24.53
2018-02-16T23:56:44.262Z,23.80
2018-02-16T23:59:11.752Z,25.17
